createdAt,value
2022-11-24T00:03:08.967Z,11.90
2022-11-24T00:08:12.031Z,11.90
2022-11-24T00:13:14.105Z,11.90
2022-11-24T00:18:16.140Z,11.90
2022-11-24T00:28:20.591Z,12.00
2022-11-24T00:33:22.613Z,12.00
2022-11-24T00:38:25.127Z,12.00
2022-11-24T00:43:27.136Z,12.00
2022-11-24T00:48:30.821Z,11.90
2022-11-24T00:53:33.748Z,11.90
2022-11-24T00:58:36.141Z,11.90
2022-11-24T01:03:38.471Z,11.90
2022-11-24T01:08:41.249Z,11.90
2022-11-24T01:13:45.428Z,11.90
2022-11-24T01:23:50.458Z,11.90
2022-11-24T01:28:57.161Z,12.00
2022-11-24T01:33:59.166Z,12.10
2022-11-24T01:44:30.381Z,12.10
2022-11-24T01:49:45.269Z,12.20
2022-11-24T01:54:57.469Z,12.20
2022-11-24T02:00:04.918Z,12.30
2022-11-24T02:05:24.286Z,12.40
2022-11-24T02:10:26.376Z,12.40
2022-11-24T02:15:28.926Z,12.50
2022-11-24T02:20:31.042Z,12.40
2022-11-24T02:25:49.048Z,12.50
2022-11-24T02:30:53.221Z,12.40
2022-11-24T02:35:55.295Z,12.40
2022-11-24T02:40:59.125Z,12.40
2022-11-24T02:46:01.257Z,12.40
2022-11-24T02:51:03.528Z,12.40
2022-11-24T02:56:05.849Z,12.40
2022-11-24T03:01:07.988Z,12.50
2022-11-24T03:06:10.135Z,12.40
2022-11-24T03:11:12.176Z,12.40
2022-11-24T03:16:14.256Z,12.40
2022-11-24T03:21:16.426Z,12.40
2022-11-24T03:26:20.628Z,12.40
2022-11-24T03:31:23.478Z,12.50
2022-11-24T03:36:25.891Z,12.50
2022-11-24T03:41:27.940Z,12.50
2022-11-24T03:46:30.071Z,12.40
2022-11-24T03:51:32.296Z,12.40
2022-11-24T03:56:34.605Z,12.40
2022-11-24T04:01:36.752Z,12.30
2022-11-24T04:12:00.280Z,12.30
2022-11-24T04:17:04.103Z,12.30
2022-11-24T04:22:06.160Z,12.20
2022-11-24T04:27:08.285Z,12.20
2022-11-24T04:32:10.349Z,12.20
2022-11-24T04:37:12.536Z,12.20
2022-11-24T04:42:14.652Z,12.30
2022-11-24T04:47:20.566Z,12.30
2022-11-24T04:52:24.644Z,12.30
2022-11-24T04:57:27.467Z,12.30
2022-11-24T05:02:29.424Z,12.30
2022-11-24T05:07:31.645Z,12.40
2022-11-24T05:12:33.910Z,12.30
2022-11-24T05:17:38.573Z,12.30
2022-11-24T05:22:40.712Z,12.30
2022-11-24T05:27:42.871Z,12.40
2022-11-24T05:32:45.070Z,12.40
2022-11-24T05:37:47.676Z,12.40
2022-11-24T05:42:49.744Z,12.40
2022-11-24T05:47:53.012Z,12.40
2022-11-24T05:57:59.247Z,12.50
2022-11-24T06:03:02.440Z,12.90
2022-11-24T06:08:05.081Z,12.50
2022-11-24T06:13:07.776Z,12.50
2022-11-24T06:18:09.860Z,12.60
2022-11-24T06:23:11.958Z,12.50
2022-11-24T06:28:14.144Z,12.50
2022-11-24T06:33:16.171Z,12.50
2022-11-24T06:38:24.116Z,12.40
2022-11-24T06:43:30.595Z,12.40
2022-11-24T06:53:38.143Z,12.30
2022-11-24T06:58:45.917Z,12.30
2022-11-24T07:03:49.089Z,12.20
2022-11-24T07:08:51.419Z,12.20
2022-11-24T07:13:59.496Z,12.20
2022-11-24T07:19:03.049Z,12.30
2022-11-24T07:24:05.566Z,12.30
2022-11-24T07:29:07.685Z,12.30
2022-11-24T07:34:09.810Z,12.30
2022-11-24T07:39:12.021Z,12.30
2022-11-24T07:44:14.048Z,12.30
2022-11-24T07:49:16.107Z,12.30
2022-11-24T07:54:18.158Z,12.30
2022-11-24T08:04:23.107Z,12.30
2022-11-24T08:09:25.163Z,12.30
2022-11-24T08:14:27.157Z,12.30
2022-11-24T08:24:32.008Z,12.40
2022-11-24T08:29:34.312Z,12.40
2022-11-24T08:34:36.876Z,12.20
2022-11-24T08:39:39.029Z,12.60
2022-11-24T08:44:41.124Z,12.60
2022-11-24T08:49:43.151Z,12.80
2022-11-24T08:54:45.273Z,12.90
2022-11-24T08:59:47.295Z,13.00
2022-11-24T09:04:49.461Z,13.00
2022-11-24T09:09:52.150Z,13.10
2022-11-24T09:14:54.153Z,13.20
2022-11-24T09:19:56.248Z,13.20
2022-11-24T09:24:58.583Z,13.20
2022-11-24T09:30:00.667Z,13.00
2022-11-24T09:35:02.765Z,13.70
2022-11-24T09:40:05.377Z,13.50
2022-11-24T09:45:14.982Z,13.60
2022-11-24T09:50:22.460Z,13.70
2022-11-24T09:55:31.509Z,13.50
2022-11-24T10:00:34.247Z,13.30
2022-11-24T10:05:36.267Z,13.40
2022-11-24T10:10:51.103Z,13.70
2022-11-24T10:16:04.373Z,14.00
2022-11-24T10:21:31.140Z,13.80
2022-11-24T10:26:44.146Z,14.10
2022-11-24T10:31:51.120Z,14.20
2022-11-24T10:37:20.591Z,13.80
2022-11-24T10:42:31.663Z,13.60
2022-11-24T10:47:33.707Z,13.70
2022-11-24T10:52:41.792Z,13.70
2022-11-24T10:57:45.072Z,13.90
2022-11-24T11:02:49.238Z,14.00
2022-11-24T11:08:08.658Z,14.00
2022-11-24T11:13:28.556Z,14.50
2022-11-24T11:18:33.032Z,14.20
2022-11-24T11:23:36.910Z,14.20
2022-11-24T11:28:39.014Z,14.40
2022-11-24T11:34:13.904Z,14.80
2022-11-24T11:39:37.862Z,15.00
2022-11-24T11:45:00.830Z,15.50
2022-11-24T11:50:02.987Z,15.50
2022-11-24T11:55:31.801Z,15.90
2022-11-24T12:00:39.675Z,15.90
2022-11-24T12:05:55.650Z,15.90
2022-11-24T12:11:25.117Z,15.80
2022-11-24T12:16:58.009Z,15.70
2022-11-24T12:22:09.414Z,15.70
2022-11-24T12:27:32.575Z,15.50
2022-11-24T12:33:00.135Z,15.30
2022-11-24T12:38:29.474Z,15.40
2022-11-24T12:43:40.324Z,15.30
2022-11-24T12:48:56.731Z,15.30
2022-11-24T12:54:02.951Z,15.00
2022-11-24T12:59:20.454Z,15.00
2022-11-24T13:04:34.404Z,15.00
2022-11-24T13:09:37.145Z,14.90
2022-11-24T13:14:43.109Z,15.00
2022-11-24T13:19:45.885Z,15.00
2022-11-24T13:25:03.066Z,15.20
2022-11-24T13:30:34.247Z,15.40
2022-11-24T13:35:37.318Z,15.50
2022-11-24T13:40:54.133Z,15.50
2022-11-24T13:46:03.802Z,15.80
2022-11-24T13:56:24.862Z,16.20
2022-11-24T14:01:36.623Z,16.30
2022-11-24T14:06:46.043Z,16.60
2022-11-24T14:12:15.387Z,16.10
2022-11-24T14:17:27.562Z,16.10
2022-11-24T14:22:39.069Z,16.00
2022-11-24T14:27:41.167Z,15.90
2022-11-24T14:33:01.155Z,15.60
2022-11-24T14:38:05.127Z,15.70
2022-11-24T14:43:28.186Z,15.60
2022-11-24T14:48:45.704Z,15.30
2022-11-24T14:53:52.184Z,15.20
2022-11-24T14:58:55.774Z,15.10
2022-11-24T15:04:38.894Z,15.00
2022-11-24T15:09:57.696Z,14.80
2022-11-24T15:15:04.629Z,14.80
2022-11-24T15:20:16.912Z,14.50
2022-11-24T15:25:32.356Z,14.30
2022-11-24T15:30:36.657Z,14.10
2022-11-24T15:35:38.761Z,14.00
2022-11-24T15:40:43.533Z,13.70
2022-11-24T15:45:45.625Z,13.50
2022-11-24T15:50:48.335Z,13.30
2022-11-24T15:55:51.508Z,13.10
2022-11-24T16:00:53.950Z,12.90
2022-11-24T16:05:57.535Z,12.90
2022-11-24T16:10:59.532Z,12.60
2022-11-24T16:16:01.646Z,12.50
2022-11-24T16:21:03.731Z,12.40
2022-11-24T16:26:06.627Z,12.20
2022-11-24T16:31:08.745Z,12.10
2022-11-24T16:36:11.148Z,12.00
2022-11-24T16:41:14.141Z,11.90
2022-11-24T16:46:23.151Z,11.80
2022-11-24T16:51:27.767Z,11.70
2022-11-24T16:56:32.367Z,11.60
2022-11-24T17:01:34.742Z,11.60
2022-11-24T17:06:36.859Z,11.60
2022-11-24T17:11:39.173Z,11.50
2022-11-24T17:16:41.507Z,11.20
2022-11-24T17:21:43.755Z,11.00
2022-11-24T17:26:48.970Z,11.00
2022-11-24T17:31:51.417Z,10.80
2022-11-24T17:36:53.553Z,10.70
2022-11-24T17:41:55.606Z,10.50
2022-11-24T17:46:58.937Z,10.40
2022-11-24T17:52:01.245Z,10.20
2022-11-24T17:57:03.447Z,10.20
2022-11-24T18:02:05.500Z,10.20
2022-11-24T18:07:07.793Z,10.10
2022-11-24T18:12:10.026Z,9.80
2022-11-24T18:22:14.574Z,9.60
2022-11-24T18:27:16.691Z,9.60
2022-11-24T18:32:18.753Z,9.40
2022-11-24T18:37:20.840Z,9.30
2022-11-24T18:42:25.441Z,9.20
2022-11-24T18:47:27.546Z,9.20
2022-11-24T18:52:29.693Z,9.20
2022-11-24T18:57:31.788Z,9.00
2022-11-24T19:02:34.629Z,9.00
2022-11-24T19:07:36.810Z,8.90
2022-11-24T19:12:39.007Z,8.80
2022-11-24T19:22:43.531Z,9.00
2022-11-24T19:27:46.364Z,8.60
2022-11-24T19:32:48.451Z,8.50
2022-11-24T19:37:51.078Z,8.40
2022-11-24T19:42:53.081Z,8.40
2022-11-24T19:47:55.099Z,8.30
2022-11-24T19:52:57.127Z,8.30
2022-11-24T19:57:59.153Z,8.20
2022-11-24T20:03:01.274Z,8.10
2022-11-24T20:08:03.537Z,8.10
2022-11-24T20:13:05.560Z,8.00
2022-11-24T20:18:07.695Z,8.00
2022-11-24T20:23:10.285Z,7.90
2022-11-24T20:28:12.215Z,7.80
2022-11-24T20:38:16.797Z,7.70
2022-11-24T20:43:18.812Z,7.70
2022-11-24T20:48:20.834Z,7.60
2022-11-24T20:53:23.413Z,7.60
2022-11-24T20:58:25.469Z,7.50
2022-11-24T21:03:27.574Z,7.50
2022-11-24T21:08:33.748Z,7.50
2022-11-24T21:13:37.155Z,7.50
2022-11-24T21:23:42.789Z,7.40
2022-11-24T21:28:47.399Z,7.40
2022-11-24T21:33:51.779Z,7.30
2022-11-24T21:38:56.028Z,6.70
2022-11-24T21:43:58.188Z,7.00
2022-11-24T21:49:01.530Z,6.80
2022-11-24T21:54:03.785Z,6.80
2022-11-24T22:04:09.483Z,6.60
2022-11-24T22:09:17.560Z,6.60
2022-11-24T22:14:20.341Z,6.50
2022-11-24T22:24:27.347Z,6.30
2022-11-24T22:29:29.687Z,6.20
2022-11-24T22:34:31.720Z,6.10
2022-11-24T22:39:33.802Z,6.10
2022-11-24T22:44:36.149Z,6.00
2022-11-24T22:49:38.314Z,6.00
2022-11-24T22:54:40.385Z,6.00
2022-11-24T22:59:42.527Z,5.90
2022-11-24T23:09:47.618Z,5.80
2022-11-24T23:14:49.660Z,5.80
2022-11-24T23:19:51.865Z,5.80
2022-11-24T23:29:56.429Z,5.70
2022-11-24T23:34:58.454Z,5.70
2022-11-24T23:40:00.456Z,5.70
2022-11-24T23:45:03.313Z,5.70
2022-11-24T23:50:08.448Z,5.70
2022-11-24T23:55:10.480Z,5.70
